Time;durP1;ratioP1;P1;durP2;ratioP2;P2;SDS_P1;SDS_P2;PMS_P1;PMS_P2;Temp;Humidity;BMP_temperature;BMP_pressure;BME280_temperature;BME280_humidity;BME280_pressure;Samples;Min_cycle;Max_cycle;Signal;HPM_P1;HPM_P2
2023/11/29 00:00:47;;;;;;;4.60;2.70;;;;;;;-1.65;64.87;99081.34;10434260;28;20049;-69
2023/11/29 00:05:49;;;;;;;4.68;2.42;;;;;;;-1.65;65.02;99074.50;10437959;28;20049;-68
2023/11/29 00:10:51;;;;;;;4.22;2.22;;;;;;;-1.65;64.98;99077.06;10410610;28;20049;-70
2023/11/29 00:15:54;;;;;;;5.28;2.58;;;;;;;-1.64;64.85;99085.59;10432321;28;20044;-69
2023/11/29 00:21:00;;;;;;;5.13;2.83;;;;;;;-1.69;64.70;99066.91;10414232;28;20738;-70
2023/11/29 00:26:02;;;;;;;7.18;2.88;;;;;;;-1.75;64.96;99049.13;10433914;28;20487;-69
2023/11/29 00:31:04;;;;;;;5.00;2.83;;;;;;;-1.85;64.99;99033.13;10414664;28;20397;-70
2023/11/29 00:36:07;;;;;;;6.55;3.33;;;;;;;-1.89;65.02;99036.66;10432615;28;20080;-69
2023/11/29 00:41:09;;;;;;;7.35;3.40;;;;;;;-1.94;64.89;99033.38;10414245;28;20037;-69
2023/11/29 00:46:11;;;;;;;4.88;2.80;;;;;;;-1.91;64.79;99040.97;10394132;28;20041;-69
2023/11/29 00:51:14;;;;;;;5.53;2.92;;;;;;;-1.84;64.61;99041.66;10393529;28;20048;-70
2023/11/29 00:56:15;;;;;;;5.05;3.00;;;;;;;-1.84;64.55;99036.53;10411702;28;20485;-69
2023/11/29 01:01:18;;;;;;;9.05;2.97;;;;;;;-1.88;64.57;99024.69;10414258;28;20381;-69
2023/11/29 01:06:20;;;;;;;6.00;3.22;;;;;;;-1.95;64.52;99023.97;10430464;28;20535;-69
2023/11/29 01:11:23;;;;;;;6.00;3.60;;;;;;;-2.02;64.59;99000.22;10430003;28;20535;-69
2023/11/29 01:16:26;;;;;;;5.90;2.90;;;;;;;-1.96;64.82;98993.28;10411797;28;20735;-70
2023/11/29 01:21:28;;;;;;;6.47;3.00;;;;;;;-1.85;64.99;98992.13;10430061;28;20044;-70
2023/11/29 01:26:38;;;;;;;7.05;2.60;;;;;;;-1.54;64.31;98998.19;10410839;28;20041;-69
2023/11/29 01:31:40;;;;;;;7.25;2.85;;;;;;;-1.35;64.27;98999.34;10396743;28;20045;-69
2023/11/29 01:36:43;;;;;;;5.63;2.13;;;;;;;-1.13;63.67;98993.66;10431142;28;20037;-70
2023/11/29 01:41:45;;;;;;;5.03;2.78;;;;;;;-1.03;63.61;98989.94;10410748;28;20080;-68
2023/11/29 01:46:48;;;;;;;5.38;2.70;;;;;;;-0.92;63.41;98972.53;10428320;28;20114;-69
2023/11/29 01:51:50;;;;;;;5.72;2.55;;;;;;;-0.86;63.28;98965.47;10429137;28;20401;-70
2023/11/29 01:56:52;;;;;;;6.72;3.08;;;;;;;-0.87;63.28;98960.38;10411599;28;20072;-68
2023/11/29 02:01:55;;;;;;;5.60;2.63;;;;;;;-0.92;63.07;98957.13;10409694;28;20095;-70
2023/11/29 02:06:56;;;;;;;7.30;3.30;;;;;;;-0.89;63.13;98937.34;10411614;28;20040;-68
2023/11/29 02:11:59;;;;;;;4.13;2.33;;;;;;;-0.99;63.09;98933.38;10413087;28;20794;-69
2023/11/29 02:17:01;;;;;;;6.60;2.45;;;;;;;-1.03;62.68;98933.50;10408481;28;20099;-68
2023/11/29 02:22:04;;;;;;;8.98;2.20;;;;;;;-1.17;62.62;98931.34;10414405;28;20140;-69
2023/11/29 02:27:06;;;;;;;5.88;2.60;;;;;;;-1.16;62.67;98927.88;10397919;28;20052;-68
2023/11/29 02:32:08;;;;;;;5.05;2.20;;;;;;;-1.17;62.57;98911.63;10431783;28;20140;-69
2023/11/29 02:37:10;;;;;;;4.15;2.30;;;;;;;-1.20;62.33;98906.59;10432200;28;20041;-69
2023/11/29 02:42:12;;;;;;;3.15;1.90;;;;;;;-1.17;62.40;98908.25;10429274;28;20064;-69
2023/11/29 02:47:14;;;;;;;3.55;2.13;;;;;;;-1.10;62.36;98898.66;10430180;28;20330;-68
2023/11/29 02:52:16;;;;;;;3.72;2.17;;;;;;;-1.05;61.94;98900.19;10408417;28;20056;-68
2023/11/29 02:57:18;;;;;;;2.78;1.95;;;;;;;-1.14;61.61;98900.44;10427000;28;20067;-69
2023/11/29 03:02:20;;;;;;;4.13;1.95;;;;;;;-1.18;61.83;98897.13;10404724;28;20453;-69
2023/11/29 03:07:22;;;;;;;3.38;2.20;;;;;;;-1.34;61.81;98887.34;10428385;28;20572;-69
2023/11/29 03:12:24;;;;;;;5.38;2.08;;;;;;;-1.48;62.09;98879.22;10425884;28;20447;-69
2023/11/29 03:17:26;;;;;;;3.17;1.88;;;;;;;-1.50;62.04;98869.00;10428176;28;20072;-69
2023/11/29 03:22:28;;;;;;;4.20;2.33;;;;;;;-1.50;62.16;98860.47;10409202;28;20174;-68
2023/11/29 03:27:31;;;;;;;3.42;1.88;;;;;;;-1.55;62.07;98854.66;10408018;28;20049;-69
2023/11/29 03:32:33;;;;;;;3.33;1.80;;;;;;;-1.56;62.25;98855.53;10427863;28;20203;-69
2023/11/29 03:37:36;;;;;;;2.33;1.58;;;;;;;-1.56;62.31;98853.81;10408312;28;20045;-68
2023/11/29 03:42:38;;;;;;;2.97;1.60;;;;;;;-1.64;62.23;98836.94;10432914;28;20039;-69
2023/11/29 03:47:40;;;;;;;3.38;1.90;;;;;;;-1.62;62.50;98843.72;10398628;28;20065;-69
2023/11/29 03:52:42;;;;;;;3.00;1.77;;;;;;;-1.50;62.27;98833.13;10417078;28;20558;-68
2023/11/29 03:57:45;;;;;;;2.80;1.40;;;;;;;-1.59;61.75;98823.13;10418381;28;20122;-68
2023/11/29 04:02:47;;;;;;;2.95;1.67;;;;;;;-1.75;62.20;98811.63;10415859;28;20135;-69
2023/11/29 04:07:49;;;;;;;6.00;2.03;;;;;;;-1.76;62.62;98803.97;10435561;28;20055;-68
2023/11/29 04:12:51;;;;;;;3.05;1.90;;;;;;;-1.91;62.94;98800.13;10412276;28;20049;-69
2023/11/29 04:17:53;;;;;;;3.35;2.25;;;;;;;-1.88;62.93;98794.06;10417923;28;20037;-68
2023/11/29 04:22:55;;;;;;;5.25;1.85;;;;;;;-1.78;63.22;98787.81;10434647;28;20489;-68
2023/11/29 04:27:57;;;;;;;4.72;1.95;;;;;;;-1.70;63.20;98771.34;10432106;28;20047;-69
2023/11/29 04:32:59;;;;;;;4.63;2.10;;;;;;;-1.68;63.41;98763.59;10433215;28;20114;-69
2023/11/29 04:38:01;;;;;;;7.07;2.80;;;;;;;-1.65;63.46;98753.22;10416024;28;20335;-69
2023/11/29 04:43:03;;;;;;;4.50;2.22;;;;;;;-1.57;63.63;98749.56;10398100;28;20041;-68
2023/11/29 04:48:05;;;;;;;5.13;2.63;;;;;;;-1.47;63.41;98742.47;10418327;28;20048;-68
2023/11/29 04:53:07;;;;;;;5.53;2.75;;;;;;;-1.38;63.45;98739.59;10401170;28;20044;-69
2023/11/29 04:58:09;;;;;;;4.43;2.38;;;;;;;-1.19;63.49;98741.53;10433089;28;20048;-68
2023/11/29 05:03:11;;;;;;;5.00;2.80;;;;;;;-1.09;63.53;98747.22;10434158;28;20072;-69
2023/11/29 05:08:14;;;;;;;5.20;2.50;;;;;;;-0.97;63.43;98744.28;10433004;28;20465;-68
2023/11/29 05:13:17;;;;;;;7.10;3.65;;;;;;;-0.80;63.59;98748.84;10433101;28;20053;-69
2023/11/29 05:18:19;;;;;;;8.00;3.80;;;;;;;-0.66;63.18;98750.09;10435523;28;20370;-69
2023/11/29 05:23:21;;;;;;;4.90;2.50;;;;;;;-0.64;63.46;98738.03;10417700;28;20134;-68
2023/11/29 05:28:26;;;;;;;5.07;2.40;;;;;;;-0.59;63.61;98725.88;10434950;28;20111;-68
2023/11/29 05:33:29;;;;;;;7.72;3.33;;;;;;;-0.50;63.37;98735.00;10434887;28;20033;-68
2023/11/29 05:38:31;;;;;;;4.63;2.20;;;;;;;-0.43;63.42;98718.47;10428661;28;20112;-68
2023/11/29 05:43:33;;;;;;;5.05;2.80;;;;;;;-0.36;63.54;98712.22;10433985;28;20033;-69
2023/11/29 05:48:35;;;;;;;4.47;2.78;;;;;;;-0.27;63.73;98706.78;10434245;28;20052;-69
2023/11/29 05:53:37;;;;;;;4.53;2.47;;;;;;;-0.30;63.60;98706.88;10411564;28;20120;-69
2023/11/29 05:58:40;;;;;;;5.15;2.50;;;;;;;-0.32;64.11;98704.38;10449597;28;20052;-69
2023/11/29 06:03:43;;;;;;;5.55;2.90;;;;;;;-0.12;63.99;98716.50;10433133;28;20048;-69
2023/11/29 06:08:45;;;;;;;6.57;3.30;;;;;;;0.12;63.59;98700.16;10433080;28;20493;-68
2023/11/29 06:13:48;;;;;;;5.65;3.00;;;;;;;0.16;63.59;98703.50;10432090;28;20132;-69
2023/11/29 06:18:50;;;;;;;5.05;2.72;;;;;;;0.25;63.79;98703.13;10430452;28;20404;-69
2023/11/29 06:23:52;;;;;;;5.38;2.70;;;;;;;0.17;64.14;98705.16;10411950;28;20049;-68
2023/11/29 06:28:54;;;;;;;6.90;3.08;;;;;;;0.09;64.79;98704.59;10430412;28;20072;-69
2023/11/29 06:33:56;;;;;;;9.30;3.30;;;;;;;0.15;64.95;98707.78;10414524;28;20037;-69
2023/11/29 06:38:59;;;;;;;5.30;2.90;;;;;;;0.22;64.92;98708.41;10433042;28;20576;-69
2023/11/29 06:44:01;;;;;;;5.53;3.15;;;;;;;0.30;64.72;98701.22;10432750;28;20040;-69
2023/11/29 06:49:03;;;;;;;7.28;3.05;;;;;;;0.26;65.28;98704.81;10432955;28;20040;-68
2023/11/29 06:54:05;;;;;;;5.43;3.20;;;;;;;0.46;65.13;98694.59;10431893;28;20045;-69
2023/11/29 06:59:08;;;;;;;4.05;2.45;;;;;;;0.56;64.87;98684.78;10432761;28;20041;-69
2023/11/29 07:04:09;;;;;;;6.63;2.78;;;;;;;0.58;64.74;98676.13;10413452;28;20021;-69
2023/11/29 07:09:16;;;;;;;4.53;2.10;;;;;;;0.67;64.54;98688.59;10432004;28;20145;-69
2023/11/29 07:14:18;;;;;;;4.88;2.28;;;;;;;0.77;64.59;98684.75;10431112;28;20399;-68
2023/11/29 07:19:19;;;;;;;6.65;2.45;;;;;;;0.86;64.52;98689.56;10397826;28;20049;-69
2023/11/29 07:24:21;;;;;;;4.15;2.15;;;;;;;1.03;64.56;98684.56;10398577;28;20083;-69
2023/11/29 07:29:23;;;;;;;7.28;2.67;;;;;;;1.15;64.32;98678.06;10381938;28;20045;-69
2023/11/29 07:34:25;;;;;;;6.13;2.58;;;;;;;1.15;64.39;98671.19;10396902;28;20144;-69
2023/11/29 07:39:27;;;;;;;7.03;2.67;;;;;;;1.16;64.57;98661.69;10394796;28;20045;-69
2023/11/29 07:44:29;;;;;;;7.30;3.03;;;;;;;1.41;64.21;98661.50;10393822;28;20524;-69
2023/11/29 07:49:31;;;;;;;4.82;2.40;;;;;;;1.58;63.82;98669.34;10394862;28;20149;-69
2023/11/29 07:54:33;;;;;;;4.13;2.20;;;;;;;1.74;63.57;98663.47;10391930;28;20042;-69
2023/11/29 07:59:35;;;;;;;4.68;2.20;;;;;;;1.83;63.43;98657.88;10393935;28;20327;-69
2023/11/29 08:04:38;;;;;;;4.68;2.60;;;;;;;1.79;63.43;98653.75;10423280;28;20038;-69
2023/11/29 08:09:40;;;;;;;6.57;3.15;;;;;;;1.86;63.51;98652.59;10390638;28;20077;-69
2023/11/29 08:14:42;;;;;;;7.47;2.58;;;;;;;1.81;63.26;98659.69;10395005;28;20497;-69
2023/11/29 08:19:44;;;;;;;6.53;2.97;;;;;;;1.71;63.53;98644.69;10433014;28;20067;-69
2023/11/29 08:24:46;;;;;;;7.22;2.92;;;;;;;1.48;64.24;98653.47;10434102;28;20048;-69
2023/11/29 08:29:49;;;;;;;4.93;3.00;;;;;;;1.58;64.33;98649.56;10433772;28;20049;-68
2023/11/29 08:34:50;;;;;;;4.45;2.45;;;;;;;1.71;63.94;98648.13;10433392;28;20105;-69
2023/11/29 08:39:55;;;;;;;5.47;2.50;;;;;;;1.78;63.93;98649.53;10437138;28;20132;-68
2023/11/29 08:44:58;;;;;;;4.85;2.75;;;;;;;1.77;63.68;98657.31;10435971;28;20044;-69
2023/11/29 08:50:00;;;;;;;5.32;2.95;;;;;;;1.93;63.66;98656.56;10448141;28;20067;-68
2023/11/29 08:55:05;;;;;;;4.55;2.33;;;;;;;1.69;64.08;98649.06;10435274;28;20059;-69
2023/11/29 09:00:09;;;;;;;5.38;2.83;;;;;;;1.76;63.92;98647.91;10431528;28;20049;-68
2023/11/29 09:05:12;;;;;;;5.57;2.60;;;;;;;2.01;63.47;98643.34;10430413;28;20041;-69
2023/11/29 09:10:14;;;;;;;4.53;2.55;;;;;;;2.21;63.17;98646.66;10424914;28;20059;-69
2023/11/29 09:15:16;;;;;;;4.32;2.38;;;;;;;2.35;62.64;98633.13;10431076;28;20056;-69
2023/11/29 09:20:18;;;;;;;4.97;2.20;;;;;;;2.45;62.62;98634.38;10432700;28;20061;-69
2023/11/29 09:25:20;;;;;;;5.13;2.47;;;;;;;2.48;62.33;98630.81;10430628;28;21648;-68
2023/11/29 09:30:22;;;;;;;6.35;2.35;;;;;;;2.55;62.12;98627.84;10414559;28;20056;-69
2023/11/29 09:35:24;;;;;;;4.90;2.38;;;;;;;2.52;62.21;98625.41;10413607;28;20526;-69
2023/11/29 09:40:27;;;;;;;10.48;2.78;;;;;;;2.70;62.25;98624.50;10427459;28;20049;-69
2023/11/29 09:45:30;;;;;;;3.80;2.03;;;;;;;2.86;61.78;98629.78;10405082;28;20131;-69
2023/11/29 09:50:33;;;;;;;4.50;2.22;;;;;;;3.25;60.99;98625.22;10429966;28;20060;-68
2023/11/29 09:55:35;;;;;;;3.63;2.17;;;;;;;3.91;59.88;98617.44;10422983;28;20055;-68
2023/11/29 10:00:37;;;;;;;5.65;2.45;;;;;;;3.92;58.62;98622.56;10426881;28;20041;-69
2023/11/29 10:05:46;;;;;;;3.92;2.10;;;;;;;4.22;57.88;98607.97;10428331;28;20037;-69
2023/11/29 10:10:50;;;;;;;3.83;2.33;;;;;;;4.56;58.54;98610.34;10437520;28;20048;-69
2023/11/29 10:15:54;;;;;;;2.95;1.80;;;;;;;4.76;58.23;98610.97;10426625;28;20564;-68
2023/11/29 10:20:57;;;;;;;2.83;1.75;;;;;;;4.59;57.92;98601.56;10427448;28;20048;-68
2023/11/29 10:26:09;;;;;;;4.32;2.35;;;;;;;4.46;58.43;98593.66;10427581;28;20204;-70
2023/11/29 10:31:12;;;;;;;3.88;2.00;;;;;;;4.66;57.84;98589.91;10426248;28;20131;-69
2023/11/29 10:36:17;;;;;;;4.70;2.35;;;;;;;4.57;57.56;98588.72;10428190;28;20112;-68
2023/11/29 10:41:22;;;;;;;3.80;1.98;;;;;;;4.46;58.29;98592.81;10426622;28;20045;-69
2023/11/29 10:46:28;;;;;;;3.30;1.60;;;;;;;4.46;58.28;98595.41;10422485;28;20424;-69
2023/11/29 10:51:32;;;;;;;3.58;1.90;;;;;;;4.30;57.79;98589.41;10426276;28;20138;-68
2023/11/29 10:56:35;;;;;;;4.15;2.17;;;;;;;4.09;58.47;98588.03;10422948;28;20150;-69
2023/11/29 11:01:37;;;;;;;3.65;2.15;;;;;;;3.75;58.82;98587.22;10376836;28;20033;-68
2023/11/29 11:06:40;;;;;;;4.68;2.08;;;;;;;3.97;59.06;98584.34;10427549;28;20497;-68
2023/11/29 11:11:47;;;;;;;3.55;1.65;;;;;;;4.18;57.84;98579.75;10422265;28;20124;-69
2023/11/29 11:17:06;;;;;;;3.40;1.77;;;;;;;4.07;57.94;98582.91;10425697;28;20080;-69
2023/11/29 11:22:12;;;;;;;3.80;2.05;;;;;;;3.79;58.09;98580.97;10427300;28;20692;-69
2023/11/29 11:27:15;;;;;;;3.30;1.80;;;;;;;4.05;58.65;98574.41;10423911;28;20562;-68
2023/11/29 11:32:34;;;;;;;3.05;1.55;;;;;;;4.07;58.20;98579.50;10425226;28;20572;-68
2023/11/29 11:37:37;;;;;;;1.92;1.33;;;;;;;4.20;58.38;98577.91;10422961;28;20044;-68
2023/11/29 11:42:40;;;;;;;3.88;1.52;;;;;;;4.15;57.73;98575.56;10422339;28;20045;-68
2023/11/29 11:47:43;;;;;;;4.43;1.88;;;;;;;4.26;58.15;98573.22;10401206;28;20205;-69
2023/11/29 11:52:45;;;;;;;4.35;2.17;;;;;;;4.44;57.88;98571.34;10423956;28;20553;-68
2023/11/29 11:57:48;;;;;;;4.65;2.10;;;;;;;4.33;58.17;98574.53;10423558;28;20052;-68
2023/11/29 12:02:50;;;;;;;2.40;1.50;;;;;;;3.82;58.33;98575.63;10410497;28;20043;-68
2023/11/29 12:07:53;;;;;;;3.25;2.03;;;;;;;3.71;58.89;98575.38;10426440;28;20044;-69
2023/11/29 12:12:55;;;;;;;3.50;1.92;;;;;;;3.57;58.96;98571.84;10404920;28;20095;-69
2023/11/29 12:17:58;;;;;;;3.88;1.80;;;;;;;3.45;59.35;98569.91;10411291;28;20075;-68
2023/11/29 12:23:00;;;;;;;3.83;1.98;;;;;;;3.55;59.26;98568.50;10432770;28;20059;-68
2023/11/29 12:28:04;;;;;;;2.30;1.58;;;;;;;3.54;59.58;98570.25;10407150;28;20169;-68
2023/11/29 12:33:06;;;;;;;1.85;1.38;;;;;;;3.92;59.04;98575.16;10428403;28;20041;-68
2023/11/29 12:38:09;;;;;;;4.75;1.80;;;;;;;3.51;59.50;98582.50;10431831;28;20044;-69
2023/11/29 12:43:13;;;;;;;2.38;1.30;;;;;;;3.52;60.04;98585.00;10428633;28;20047;-68
2023/11/29 12:48:16;;;;;;;2.15;1.40;;;;;;;3.45;60.09;98578.50;10429057;28;20119;-68
2023/11/29 12:53:19;;;;;;;2.90;1.60;;;;;;;3.57;60.35;98580.44;10412501;28;20140;-68
2023/11/29 12:58:21;;;;;;;2.92;1.60;;;;;;;3.86;60.04;98576.34;10428559;28;20516;-68
2023/11/29 13:03:23;;;;;;;2.65;1.50;;;;;;;4.15;59.67;98578.16;10431692;28;20500;-68
2023/11/29 13:08:25;;;;;;;2.58;1.50;;;;;;;4.18;59.65;98578.00;10428592;28;20111;-69
2023/11/29 13:13:28;;;;;;;3.25;1.70;;;;;;;3.84;59.69;98578.16;10426757;28;20044;-68
2023/11/29 13:18:30;;;;;;;1.35;1.10;;;;;;;3.70;60.51;98584.03;10427412;28;20583;-68
2023/11/29 13:23:32;;;;;;;2.45;1.40;;;;;;;3.81;60.51;98584.31;10429988;28;20301;-68
2023/11/29 13:28:34;;;;;;;2.13;1.30;;;;;;;4.01;60.18;98583.25;10427600;28;20154;-68
2023/11/29 13:33:36;;;;;;;3.03;1.65;;;;;;;3.74;60.22;98582.94;10429328;28;20393;-69
2023/11/29 13:38:41;;;;;;;2.60;1.70;;;;;;;3.67;60.58;98585.94;10428937;28;20053;-69
2023/11/29 13:43:52;;;;;;;3.40;2.03;;;;;;;3.44;61.34;98584.56;10430095;28;20271;-69
2023/11/29 13:48:56;;;;;;;2.13;1.50;;;;;;;3.57;61.12;98595.94;10425489;28;20131;-68
2023/11/29 13:53:58;;;;;;;4.25;1.73;;;;;;;3.68;60.93;98585.06;10429759;28;20055;-67
2023/11/29 13:59:00;;;;;;;2.20;1.55;;;;;;;3.77;60.89;98589.72;10427561;28;20091;-67
2023/11/29 14:04:02;;;;;;;2.55;1.77;;;;;;;3.83;60.81;98594.56;10439030;28;21815;-67
2023/11/29 14:09:05;;;;;;;2.88;1.90;;;;;;;3.77;60.85;98597.47;10423915;28;20171;-67
2023/11/29 14:14:07;;;;;;;2.83;1.42;;;;;;;3.73;61.01;98598.56;10428028;28;20531;-67
2023/11/29 14:19:09;;;;;;;4.55;1.70;;;;;;;3.70;61.05;98589.19;10423512;28;21772;-67
2023/11/29 14:24:11;;;;;;;2.40;1.50;;;;;;;3.86;61.00;98589.28;10427672;28;20128;-67
2023/11/29 14:29:13;;;;;;;2.83;1.80;;;;;;;4.02;60.80;98586.69;10424534;28;20410;-67
2023/11/29 14:34:15;;;;;;;2.28;1.52;;;;;;;3.63;60.82;98592.19;10428532;28;20049;-67
2023/11/29 14:39:17;;;;;;;3.10;1.85;;;;;;;3.52;60.92;98587.59;10425977;28;20079;-68
2023/11/29 14:44:19;;;;;;;3.95;2.40;;;;;;;3.37;61.08;98583.25;10427530;28;20343;-67
2023/11/29 14:49:22;;;;;;;2.35;1.38;;;;;;;3.25;61.26;98590.78;10407176;28;20059;-67
2023/11/29 14:54:30;;;;;;;3.45;1.65;;;;;;;3.23;61.41;98598.63;10426884;28;20044;-68
2023/11/29 14:59:32;;;;;;;4.68;1.85;;;;;;;3.12;61.37;98610.38;10426674;28;20041;-68
2023/11/29 15:04:37;;;;;;;3.28;1.65;;;;;;;3.07;61.63;98608.88;10426682;28;20034;-66
2023/11/29 15:09:40;;;;;;;3.88;2.30;;;;;;;3.17;61.81;98613.59;10408719;28;20058;-67
2023/11/29 15:14:42;;;;;;;4.15;1.80;;;;;;;3.18;61.79;98620.41;10408294;28;20060;-67
2023/11/29 15:19:44;;;;;;;4.28;2.08;;;;;;;3.13;61.65;98640.50;10421069;28;20037;-67
2023/11/29 15:24:46;;;;;;;4.40;2.10;;;;;;;3.03;62.22;98651.28;10407675;28;20144;-67
2023/11/29 15:29:48;;;;;;;3.83;2.00;;;;;;;3.11;62.22;98642.31;10424495;28;20518;-67
2023/11/29 15:34:52;;;;;;;7.00;2.63;;;;;;;3.24;61.98;98651.09;10426609;28;20048;-66
2023/11/29 15:39:54;;;;;;;5.35;1.80;;;;;;;3.18;61.63;98635.91;10427455;28;20068;-68
2023/11/29 15:44:55;;;;;;;3.78;1.80;;;;;;;2.79;62.21;98644.72;10431697;28;20365;-69
2023/11/29 15:49:58;;;;;;;4.18;2.20;;;;;;;2.64;62.52;98655.78;10431357;28;20511;-68
2023/11/29 15:54:59;;;;;;;21.42;7.78;;;;;;;2.46;63.05;98653.28;10409157;28;20037;-68
2023/11/29 16:00:02;;;;;;;5.20;2.67;;;;;;;2.44;63.20;98648.16;10396726;28;20048;-68
2023/11/29 16:05:06;;;;;;;3.55;2.10;;;;;;;2.54;63.00;98644.22;10428743;28;20033;-68
2023/11/29 16:10:09;;;;;;;3.42;1.92;;;;;;;2.59;62.99;98650.03;10421443;28;20049;-68
2023/11/29 16:15:11;;;;;;;5.00;2.38;;;;;;;2.65;62.99;98657.47;10433574;28;20378;-64
2023/11/29 16:20:13;;;;;;;4.40;2.40;;;;;;;2.64;62.66;98655.78;10436315;28;20052;-63
2023/11/29 16:25:15;;;;;;;5.88;2.60;;;;;;;2.62;62.83;98655.03;10434214;28;20136;-63
2023/11/29 16:30:17;;;;;;;6.03;3.03;;;;;;;2.61;62.66;98660.25;10416997;28;20053;-63
2023/11/29 16:35:19;;;;;;;4.80;2.83;;;;;;;2.61;63.05;98650.78;10437018;28;20045;-63
2023/11/29 16:40:21;;;;;;;4.15;2.17;;;;;;;2.66;62.76;98656.53;10435314;28;20126;-63
2023/11/29 16:45:23;;;;;;;6.22;2.70;;;;;;;2.55;62.61;98658.81;10435717;28;20060;-63
2023/11/29 16:50:26;;;;;;;6.18;3.05;;;;;;;2.48;62.74;98652.25;10448673;28;20224;-64
2023/11/29 16:55:28;;;;;;;6.65;3.25;;;;;;;2.36;62.79;98652.84;10431999;28;20589;-63
2023/11/29 17:00:32;;;;;;;6.78;3.00;;;;;;;2.29;62.91;98656.63;10434235;28;20068;-63
2023/11/29 17:05:34;;;;;;;5.35;2.95;;;;;;;2.21;62.93;98651.81;10415130;28;20127;-64
2023/11/29 17:10:36;;;;;;;6.75;3.50;;;;;;;2.10;63.31;98656.63;10432313;28;20057;-63
2023/11/29 17:15:38;;;;;;;7.20;3.92;;;;;;;2.17;63.26;98652.03;10431701;28;20465;-63
2023/11/29 17:20:40;;;;;;;11.48;5.85;;;;;;;2.21;63.23;98651.00;10428743;28;20049;-64
2023/11/29 17:25:42;;;;;;;16.60;9.70;;;;;;;2.21;63.31;98653.56;10424381;28;21082;-63
2023/11/29 17:30:44;;;;;;;14.25;5.00;;;;;;;2.13;63.62;98666.78;10432412;28;20158;-63
2023/11/29 17:35:47;;;;;;;6.65;3.58;;;;;;;2.14;63.64;98670.22;10431263;28;20423;-63
2023/11/29 17:40:49;;;;;;;5.07;2.67;;;;;;;2.06;63.64;98672.31;10414261;28;20408;-63
2023/11/29 17:45:52;;;;;;;5.15;2.35;;;;;;;2.06;63.65;98667.16;10416173;28;20037;-64
2023/11/29 17:50:57;;;;;;;6.15;2.53;;;;;;;2.08;63.78;98668.78;10431395;28;20037;-63
2023/11/29 17:55:59;;;;;;;4.25;2.40;;;;;;;1.96;63.92;98663.31;10415449;28;20127;-63
2023/11/29 18:01:02;;;;;;;4.60;2.35;;;;;;;1.86;64.07;98665.50;10432261;28;20477;-62
2023/11/29 18:06:04;;;;;;;7.03;3.20;;;;;;;1.73;64.25;98671.22;10431611;28;20065;-63
2023/11/29 18:11:07;;;;;;;4.53;2.60;;;;;;;1.74;64.45;98678.91;10397688;28;20041;-63
2023/11/29 18:16:09;;;;;;;4.43;2.70;;;;;;;1.77;64.44;98688.22;10415076;28;20059;-63
2023/11/29 18:21:11;;;;;;;5.68;2.38;;;;;;;1.71;64.53;98689.34;10430327;28;20063;-63
2023/11/29 18:26:13;;;;;;;4.55;2.72;;;;;;;1.71;64.99;98694.50;10412209;28;20051;-64
2023/11/29 18:31:15;;;;;;;3.67;2.08;;;;;;;1.66;65.35;98695.63;10427137;28;20053;-63
2023/11/29 18:36:19;;;;;;;6.15;3.20;;;;;;;1.69;65.20;98692.88;10426589;28;20163;-63
2023/11/29 18:41:21;;;;;;;3.67;2.00;;;;;;;1.80;64.92;98704.44;10429106;28;20053;-62
2023/11/29 18:46:23;;;;;;;5.07;2.45;;;;;;;1.83;64.89;98699.13;10423836;28;20132;-62
2023/11/29 18:51:25;;;;;;;3.72;2.03;;;;;;;1.93;64.83;98705.53;10427392;28;20409;-63
2023/11/29 18:56:27;;;;;;;5.72;2.95;;;;;;;1.99;64.81;98694.16;10430369;28;20469;-63
2023/11/29 19:01:29;;;;;;;3.78;2.05;;;;;;;2.03;64.51;98693.09;10428133;28;20055;-63
2023/11/29 19:06:31;;;;;;;4.10;2.53;;;;;;;1.97;64.42;98691.59;10428843;28;20092;-63
2023/11/29 19:11:33;;;;;;;4.13;2.25;;;;;;;1.78;64.48;98692.50;10433121;28;20051;-62
2023/11/29 19:16:35;;;;;;;4.70;2.85;;;;;;;1.55;64.52;98696.06;10452918;28;20804;-63
2023/11/29 19:21:38;;;;;;;5.15;2.72;;;;;;;1.37;64.96;98694.28;10436868;28;20080;-63
2023/11/29 19:26:40;;;;;;;6.88;3.13;;;;;;;1.21;65.14;98686.38;10436623;28;20047;-62
2023/11/29 19:31:42;;;;;;;5.32;2.50;;;;;;;1.13;65.40;98685.84;10431713;28;20500;-62
2023/11/29 19:36:49;;;;;;;6.38;3.20;;;;;;;1.04;65.73;98693.94;10438500;28;20074;-63
2023/11/29 19:41:51;;;;;;;10.98;3.85;;;;;;;1.03;65.89;98691.44;10452957;28;20055;-62
2023/11/29 19:46:54;;;;;;;6.07;3.55;;;;;;;1.08;65.83;98690.34;10417234;28;20033;-62
2023/11/29 19:52:13;;;;;;;5.47;3.00;;;;;;;1.08;65.83;98699.81;10429472;28;20135;-63
2023/11/29 19:57:15;;;;;;;5.07;2.33;;;;;;;1.01;65.84;98694.09;10430913;28;20045;-63
2023/11/29 20:02:17;;;;;;;4.90;2.20;;;;;;;0.99;65.94;98688.13;10435140;28;20401;-63
2023/11/29 20:07:22;;;;;;;5.50;3.13;;;;;;;1.07;66.04;98688.69;10438032;28;20045;-63
2023/11/29 20:12:24;;;;;;;5.70;3.28;;;;;;;1.19;66.00;98693.34;10434061;28;20061;-63
2023/11/29 20:17:25;;;;;;;5.95;3.10;;;;;;;1.31;65.85;98697.97;10432655;28;20507;-63
2023/11/29 20:22:27;;;;;;;5.70;2.80;;;;;;;1.45;65.76;98697.38;10412263;28;20056;-63
2023/11/29 20:27:30;;;;;;;5.03;2.22;;;;;;;1.49;65.56;98695.50;10423165;28;20171;-63
2023/11/29 20:32:32;;;;;;;4.10;2.25;;;;;;;1.52;65.61;98691.06;10442283;28;20044;-63
2023/11/29 20:37:34;;;;;;;5.68;2.65;;;;;;;1.51;65.38;98693.69;10425116;28;20049;-63
2023/11/29 20:42:36;;;;;;;8.57;4.25;;;;;;;1.50;65.36;98690.28;10403107;28;20053;-63
2023/11/29 20:47:38;;;;;;;6.38;3.95;;;;;;;1.38;65.33;98689.06;10427346;28;20818;-63
2023/11/29 20:52:41;;;;;;;6.68;3.75;;;;;;;1.39;65.69;98684.75;10410010;28;20048;-63
2023/11/29 20:57:43;;;;;;;5.43;2.92;;;;;;;1.37;65.46;98681.41;10430151;28;20505;-63
2023/11/29 21:02:44;;;;;;;6.03;3.50;;;;;;;1.26;65.61;98679.28;10428642;28;20049;-62
2023/11/29 21:07:46;;;;;;;6.47;3.10;;;;;;;1.07;65.96;98675.81;10412375;28;20047;-63
2023/11/29 21:12:48;;;;;;;4.88;2.60;;;;;;;1.04;65.97;98673.34;10428441;28;20045;-63
2023/11/29 21:17:52;;;;;;;5.07;2.67;;;;;;;0.98;66.08;98678.75;10427503;28;20400;-63
2023/11/29 21:22:54;;;;;;;6.13;2.42;;;;;;;0.98;66.35;98670.19;10428285;28;20048;-63
2023/11/29 21:27:56;;;;;;;6.05;2.75;;;;;;;0.83;66.06;98658.78;10408483;28;21522;-63
2023/11/29 21:32:58;;;;;;;10.60;3.90;;;;;;;0.63;66.44;98655.34;10422569;28;20619;-63
2023/11/29 21:38:02;;;;;;;7.82;3.15;;;;;;;0.39;66.49;98652.00;10407465;28;20059;-62
2023/11/29 21:43:05;;;;;;;7.93;3.50;;;;;;;0.35;66.88;98647.88;10426185;28;20037;-63
2023/11/29 21:48:07;;;;;;;7.05;3.80;;;;;;;0.39;67.00;98645.13;10426344;28;20040;-63
2023/11/29 21:53:09;;;;;;;6.43;3.08;;;;;;;0.41;66.72;98650.22;10427297;28;20041;-63
2023/11/29 21:58:13;;;;;;;6.70;4.25;;;;;;;0.41;66.65;98643.34;10428833;28;20629;-62
2023/11/29 22:03:15;;;;;;;8.02;3.83;;;;;;;0.33;66.76;98652.25;10429486;28;20115;-63
2023/11/29 22:08:17;;;;;;;6.47;3.38;;;;;;;0.31;66.93;98654.88;10444268;28;20770;-62
2023/11/29 22:13:19;;;;;;;5.55;3.60;;;;;;;0.29;67.17;98661.81;10430438;28;20136;-62
2023/11/29 22:18:21;;;;;;;5.93;3.53;;;;;;;0.29;67.00;98659.25;10408777;28;20048;-62
2023/11/29 22:23:23;;;;;;;6.72;3.28;;;;;;;0.30;66.94;98658.34;10429960;28;20064;-62
2023/11/29 22:28:26;;;;;;;6.75;3.53;;;;;;;0.31;67.05;98667.75;10429460;28;20087;-63
2023/11/29 22:33:28;;;;;;;11.77;3.78;;;;;;;0.12;66.74;98663.34;10428380;28;20039;-63
2023/11/29 22:38:30;;;;;;;6.85;4.07;;;;;;;0.00;67.31;98654.38;10409984;28;20048;-62
2023/11/29 22:43:33;;;;;;;18.45;4.68;;;;;;;0.13;67.23;98665.03;10428356;28;20064;-63
2023/11/29 22:48:34;;;;;;;7.88;3.72;;;;;;;0.09;67.27;98664.31;10424136;28;20051;-63
2023/11/29 22:53:37;;;;;;;8.45;3.90;;;;;;;0.23;67.42;98666.34;10426920;28;20395;-62
2023/11/29 22:58:41;;;;;;;9.65;4.13;;;;;;;0.38;66.98;98668.34;10404969;28;20167;-63
2023/11/29 23:03:43;;;;;;;9.40;3.92;;;;;;;0.37;67.10;98661.50;10445405;28;20052;-63
2023/11/29 23:08:45;;;;;;;7.93;3.55;;;;;;;0.47;66.90;98676.53;10426094;28;20052;-63
2023/11/29 23:13:47;;;;;;;7.63;4.07;;;;;;;0.63;66.84;98679.31;10410133;28;20270;-63
2023/11/29 23:18:49;;;;;;;10.80;3.40;;;;;;;0.80;66.61;98678.66;10427791;28;20396;-63
2023/11/29 23:23:51;;;;;;;10.18;3.72;;;;;;;0.82;66.63;98664.84;10430709;28;20060;-62
2023/11/29 23:28:53;;;;;;;12.68;4.28;;;;;;;0.88;66.68;98666.31;10430724;28;20064;-63
2023/11/29 23:33:55;;;;;;;9.23;4.35;;;;;;;0.90;66.44;98662.78;10397904;28;20033;-63
2023/11/29 23:38:57;;;;;;;7.90;4.55;;;;;;;0.88;66.23;98659.44;10430994;28;20497;-62